sensor_id;sensor_type;location;lat;lon;timestamp;P1;durP1;ratioP1;P2;durP2;ratioP2
18748;SDS011;9503;53.560;10.246;2023-07-20T00:01:29;2.97;;;2.77;;
18748;SDS011;9503;53.560;10.246;2023-07-20T00:03:56;3.40;;;3.00;;
18748;SDS011;9503;53.560;10.246;2023-07-20T00:06:23;3.33;;;2.93;;
18748;SDS011;9503;53.560;10.246;2023-07-20T00:08:50;3.93;;;2.90;;
18748;SDS011;9503;53.560;10.246;2023-07-20T00:11:17;2.77;;;2.57;;
18748;SDS011;9503;53.560;10.246;2023-07-20T00:13:45;3.70;;;2.80;;
18748;SDS011;9503;53.560;10.246;2023-07-20T00:16:12;5.87;;;2.80;;
18748;SDS011;9503;53.560;10.246;2023-07-20T00:18:39;3.93;;;3.13;;
18748;SDS011;9503;53.560;10.246;2023-07-20T00:21:05;3.50;;;3.13;;
18748;SDS011;9503;53.560;10.246;2023-07-20T00:23:32;4.00;;;2.87;;
18748;SDS011;9503;53.560;10.246;2023-07-20T00:25:58;3.20;;;2.90;;
18748;SDS011;9503;53.560;10.246;2023-07-20T00:28:25;4.30;;;3.50;;
18748;SDS011;9503;53.560;10.246;2023-07-20T00:30:53;3.53;;;3.20;;
18748;SDS011;9503;53.560;10.246;2023-07-20T00:33:19;6.83;;;3.10;;
18748;SDS011;9503;53.560;10.246;2023-07-20T00:35:46;4.53;;;2.83;;
18748;SDS011;9503;53.560;10.246;2023-07-20T00:38:13;7.30;;;2.97;;
18748;SDS011;9503;53.560;10.246;2023-07-20T00:40:39;5.10;;;3.00;;
18748;SDS011;9503;53.560;10.246;2023-07-20T00:43:07;3.70;;;2.70;;
18748;SDS011;9503;53.560;10.246;2023-07-20T00:45:34;3.93;;;2.70;;
18748;SDS011;9503;53.560;10.246;2023-07-20T00:48:04;3.37;;;2.77;;
18748;SDS011;9503;53.560;10.246;2023-07-20T00:50:34;2.90;;;2.70;;
18748;SDS011;9503;53.560;10.246;2023-07-20T00:53:01;3.27;;;2.97;;
18748;SDS011;9503;53.560;10.246;2023-07-20T00:55:31;5.20;;;3.20;;
18748;SDS011;9503;53.560;10.246;2023-07-20T00:57:57;3.90;;;3.10;;
18748;SDS011;9503;53.560;10.246;2023-07-20T01:00:25;8.07;;;3.60;;
18748;SDS011;9503;53.560;10.246;2023-07-20T01:02:52;5.73;;;3.67;;
18748;SDS011;9503;53.560;10.246;2023-07-20T01:05:21;4.37;;;3.23;;
18748;SDS011;9503;53.560;10.246;2023-07-20T01:07:52;5.40;;;3.13;;
18748;SDS011;9503;53.560;10.246;2023-07-20T01:10:25;6.90;;;3.73;;
18748;SDS011;9503;53.560;10.246;2023-07-20T01:12:55;4.73;;;3.67;;
18748;SDS011;9503;53.560;10.246;2023-07-20T01:15:23;6.57;;;3.50;;
18748;SDS011;9503;53.560;10.246;2023-07-20T01:17:50;4.07;;;3.27;;
18748;SDS011;9503;53.560;10.246;2023-07-20T01:20:18;3.77;;;3.40;;
18748;SDS011;9503;53.560;10.246;2023-07-20T01:25:53;5.43;;;3.50;;
18748;SDS011;9503;53.560;10.246;2023-07-20T01:31:38;4.67;;;3.40;;
18748;SDS011;9503;53.560;10.246;2023-07-20T01:34:07;5.17;;;3.93;;
18748;SDS011;9503;53.560;10.246;2023-07-20T01:36:36;4.67;;;3.50;;
18748;SDS011;9503;53.560;10.246;2023-07-20T01:39:04;3.30;;;3.00;;
18748;SDS011;9503;53.560;10.246;2023-07-20T01:41:32;4.30;;;3.00;;
18748;SDS011;9503;53.560;10.246;2023-07-20T01:43:59;5.07;;;3.30;;
18748;SDS011;9503;53.560;10.246;2023-07-20T01:46:27;3.80;;;2.70;;
18748;SDS011;9503;53.560;10.246;2023-07-20T01:48:55;5.30;;;3.10;;
18748;SDS011;9503;53.560;10.246;2023-07-20T01:51:22;3.83;;;2.90;;
18748;SDS011;9503;53.560;10.246;2023-07-20T01:53:49;5.20;;;3.20;;
18748;SDS011;9503;53.560;10.246;2023-07-20T01:56:15;4.27;;;3.20;;
18748;SDS011;9503;53.560;10.246;2023-07-20T01:58:42;6.70;;;2.77;;
18748;SDS011;9503;53.560;10.246;2023-07-20T02:01:09;2.97;;;2.73;;
18748;SDS011;9503;53.560;10.246;2023-07-20T02:03:35;5.83;;;3.20;;
18748;SDS011;9503;53.560;10.246;2023-07-20T02:06:03;3.70;;;2.90;;
18748;SDS011;9503;53.560;10.246;2023-07-20T02:08:30;5.97;;;3.07;;
18748;SDS011;9503;53.560;10.246;2023-07-20T02:10:56;5.80;;;3.10;;
18748;SDS011;9503;53.560;10.246;2023-07-20T02:13:23;3.63;;;3.10;;
18748;SDS011;9503;53.560;10.246;2023-07-20T02:15:50;4.00;;;2.83;;
18748;SDS011;9503;53.560;10.246;2023-07-20T02:18:16;3.57;;;3.27;;
18748;SDS011;9503;53.560;10.246;2023-07-20T02:20:43;3.73;;;3.13;;
18748;SDS011;9503;53.560;10.246;2023-07-20T02:23:11;5.30;;;3.53;;
18748;SDS011;9503;53.560;10.246;2023-07-20T02:25:37;5.00;;;3.10;;
18748;SDS011;9503;53.560;10.246;2023-07-20T02:28:04;4.33;;;3.33;;
18748;SDS011;9503;53.560;10.246;2023-07-20T02:30:31;3.87;;;3.50;;
18748;SDS011;9503;53.560;10.246;2023-07-20T02:32:57;5.32;;;3.38;;
18748;SDS011;9503;53.560;10.246;2023-07-20T02:35:24;5.17;;;4.07;;
18748;SDS011;9503;53.560;10.246;2023-07-20T02:37:51;8.73;;;4.03;;
18748;SDS011;9503;53.560;10.246;2023-07-20T02:40:18;7.07;;;4.00;;
18748;SDS011;9503;53.560;10.246;2023-07-20T02:42:45;7.33;;;4.03;;
18748;SDS011;9503;53.560;10.246;2023-07-20T02:45:12;6.67;;;4.93;;
18748;SDS011;9503;53.560;10.246;2023-07-20T02:47:38;10.17;;;5.13;;
18748;SDS011;9503;53.560;10.246;2023-07-20T02:50:08;9.90;;;5.50;;
18748;SDS011;9503;53.560;10.246;2023-07-20T02:52:36;7.93;;;5.43;;
18748;SDS011;9503;53.560;10.246;2023-07-20T02:55:02;7.80;;;5.80;;
18748;SDS011;9503;53.560;10.246;2023-07-20T02:57:31;7.63;;;6.00;;
18748;SDS011;9503;53.560;10.246;2023-07-20T02:59:57;7.10;;;5.67;;
18748;SDS011;9503;53.560;10.246;2023-07-20T03:02:24;7.33;;;5.47;;
18748;SDS011;9503;53.560;10.246;2023-07-20T03:04:51;9.77;;;6.27;;
18748;SDS011;9503;53.560;10.246;2023-07-20T03:07:17;7.73;;;5.77;;
18748;SDS011;9503;53.560;10.246;2023-07-20T03:09:44;9.10;;;7.00;;
18748;SDS011;9503;53.560;10.246;2023-07-20T03:12:11;9.73;;;7.07;;
18748;SDS011;9503;53.560;10.246;2023-07-20T03:14:39;9.40;;;6.70;;
18748;SDS011;9503;53.560;10.246;2023-07-20T03:17:05;9.57;;;6.80;;
18748;SDS011;9503;53.560;10.246;2023-07-20T03:19:33;10.43;;;7.87;;
18748;SDS011;9503;53.560;10.246;2023-07-20T03:22:00;9.13;;;7.27;;
18748;SDS011;9503;53.560;10.246;2023-07-20T03:24:26;11.07;;;7.57;;
18748;SDS011;9503;53.560;10.246;2023-07-20T03:26:53;10.30;;;7.00;;
18748;SDS011;9503;53.560;10.246;2023-07-20T03:29:20;9.63;;;7.13;;
18748;SDS011;9503;53.560;10.246;2023-07-20T03:31:47;12.00;;;7.27;;
18748;SDS011;9503;53.560;10.246;2023-07-20T03:34:15;10.07;;;7.93;;
18748;SDS011;9503;53.560;10.246;2023-07-20T03:36:42;7.93;;;6.37;;
18748;SDS011;9503;53.560;10.246;2023-07-20T03:39:08;11.63;;;7.10;;
18748;SDS011;9503;53.560;10.246;2023-07-20T03:41:35;9.40;;;6.50;;
18748;SDS011;9503;53.560;10.246;2023-07-20T03:44:02;7.07;;;6.30;;
18748;SDS011;9503;53.560;10.246;2023-07-20T03:46:29;7.07;;;5.77;;
18748;SDS011;9503;53.560;10.246;2023-07-20T03:48:57;8.93;;;6.80;;
18748;SDS011;9503;53.560;10.246;2023-07-20T03:51:24;8.40;;;6.50;;
18748;SDS011;9503;53.560;10.246;2023-07-20T03:53:50;7.73;;;6.33;;
18748;SDS011;9503;53.560;10.246;2023-07-20T03:56:17;9.13;;;6.23;;
18748;SDS011;9503;53.560;10.246;2023-07-20T03:58:44;7.80;;;5.87;;
18748;SDS011;9503;53.560;10.246;2023-07-20T04:01:10;7.50;;;5.60;;
18748;SDS011;9503;53.560;10.246;2023-07-20T04:03:38;7.93;;;5.82;;
18748;SDS011;9503;53.560;10.246;2023-07-20T04:06:06;6.27;;;5.50;;
18748;SDS011;9503;53.560;10.246;2023-07-20T04:08:33;6.23;;;5.50;;
18748;SDS011;9503;53.560;10.246;2023-07-20T04:11:00;6.10;;;5.50;;
18748;SDS011;9503;53.560;10.246;2023-07-20T04:13:27;5.93;;;5.03;;
18748;SDS011;9503;53.560;10.246;2023-07-20T04:15:54;7.20;;;5.82;;
18748;SDS011;9503;53.560;10.246;2023-07-20T04:18:21;5.95;;;5.35;;
18748;SDS011;9503;53.560;10.246;2023-07-20T04:20:48;7.95;;;4.95;;
18748;SDS011;9503;53.560;10.246;2023-07-20T04:23:16;6.00;;;4.93;;
18748;SDS011;9503;53.560;10.246;2023-07-20T04:25:43;7.60;;;5.93;;
18748;SDS011;9503;53.560;10.246;2023-07-20T04:28:10;6.53;;;5.18;;
18748;SDS011;9503;53.560;10.246;2023-07-20T04:30:37;6.97;;;5.22;;
18748;SDS011;9503;53.560;10.246;2023-07-20T04:33:05;6.82;;;5.35;;
18748;SDS011;9503;53.560;10.246;2023-07-20T04:35:45;5.70;;;5.03;;
18748;SDS011;9503;53.560;10.246;2023-07-20T04:38:13;6.53;;;5.20;;
18748;SDS011;9503;53.560;10.246;2023-07-20T04:40:42;6.50;;;5.63;;
18748;SDS011;9503;53.560;10.246;2023-07-20T04:43:08;5.50;;;5.00;;
18748;SDS011;9503;53.560;10.246;2023-07-20T04:45:35;6.00;;;5.13;;
18748;SDS011;9503;53.560;10.246;2023-07-20T04:48:01;7.80;;;5.72;;
18748;SDS011;9503;53.560;10.246;2023-07-20T04:50:28;6.10;;;5.35;;
18748;SDS011;9503;53.560;10.246;2023-07-20T04:52:55;5.53;;;5.03;;
18748;SDS011;9503;53.560;10.246;2023-07-20T04:55:21;5.45;;;4.45;;
18748;SDS011;9503;53.560;10.246;2023-07-20T04:57:49;7.55;;;5.10;;
18748;SDS011;9503;53.560;10.246;2023-07-20T05:00:16;6.07;;;4.65;;
18748;SDS011;9503;53.560;10.246;2023-07-20T05:02:44;6.75;;;4.50;;
18748;SDS011;9503;53.560;10.246;2023-07-20T05:05:12;7.65;;;4.75;;
18748;SDS011;9503;53.560;10.246;2023-07-20T05:07:39;5.88;;;4.72;;
18748;SDS011;9503;53.560;10.246;2023-07-20T05:10:06;5.43;;;4.93;;
18748;SDS011;9503;53.560;10.246;2023-07-20T05:12:33;6.57;;;5.07;;
18748;SDS011;9503;53.560;10.246;2023-07-20T05:15:01;5.47;;;4.97;;
18748;SDS011;9503;53.560;10.246;2023-07-20T05:17:29;5.80;;;5.15;;
18748;SDS011;9503;53.560;10.246;2023-07-20T05:19:55;8.15;;;4.93;;
18748;SDS011;9503;53.560;10.246;2023-07-20T05:22:22;4.75;;;4.35;;
18748;SDS011;9503;53.560;10.246;2023-07-20T05:24:49;5.10;;;4.60;;
18748;SDS011;9503;53.560;10.246;2023-07-20T05:27:16;7.07;;;3.92;;
18748;SDS011;9503;53.560;10.246;2023-07-20T05:29:43;5.57;;;4.22;;
18748;SDS011;9503;53.560;10.246;2023-07-20T05:32:11;5.15;;;4.60;;
18748;SDS011;9503;53.560;10.246;2023-07-20T05:34:38;6.63;;;4.45;;
18748;SDS011;9503;53.560;10.246;2023-07-20T05:37:05;5.00;;;4.50;;
18748;SDS011;9503;53.560;10.246;2023-07-20T05:39:32;5.70;;;4.50;;
18748;SDS011;9503;53.560;10.246;2023-07-20T05:41:58;6.28;;;5.05;;
18748;SDS011;9503;53.560;10.246;2023-07-20T05:44:25;6.32;;;4.50;;
18748;SDS011;9503;53.560;10.246;2023-07-20T05:46:51;4.28;;;3.92;;
18748;SDS011;9503;53.560;10.246;2023-07-20T05:49:19;4.63;;;3.92;;
18748;SDS011;9503;53.560;10.246;2023-07-20T05:51:46;6.45;;;3.33;;
18748;SDS011;9503;53.560;10.246;2023-07-20T05:54:12;3.60;;;3.30;;
18748;SDS011;9503;53.560;10.246;2023-07-20T05:56:39;3.25;;;2.95;;
18748;SDS011;9503;53.560;10.246;2023-07-20T05:59:06;3.85;;;3.55;;
18748;SDS011;9503;53.560;10.246;2023-07-20T06:01:32;2.90;;;2.70;;
18748;SDS011;9503;53.560;10.246;2023-07-20T06:03:59;2.65;;;2.45;;
18748;SDS011;9503;53.560;10.246;2023-07-20T06:06:27;3.28;;;2.45;;
18748;SDS011;9503;53.560;10.246;2023-07-20T06:08:53;2.78;;;2.15;;
18748;SDS011;9503;53.560;10.246;2023-07-20T06:11:20;2.38;;;1.90;;
18748;SDS011;9503;53.560;10.246;2023-07-20T06:13:47;1.98;;;1.85;;
18748;SDS011;9503;53.560;10.246;2023-07-20T06:16:13;3.33;;;2.17;;
18748;SDS011;9503;53.560;10.246;2023-07-20T06:18:40;2.08;;;1.88;;
18748;SDS011;9503;53.560;10.246;2023-07-20T06:21:07;2.67;;;1.92;;
18748;SDS011;9503;53.560;10.246;2023-07-20T06:23:35;2.55;;;2.13;;
18748;SDS011;9503;53.560;10.246;2023-07-20T06:26:01;3.97;;;2.08;;
18748;SDS011;9503;53.560;10.246;2023-07-20T06:28:28;4.07;;;2.30;;
18748;SDS011;9503;53.560;10.246;2023-07-20T06:30:58;2.15;;;1.95;;
18748;SDS011;9503;53.560;10.246;2023-07-20T06:33:26;3.80;;;1.90;;
18748;SDS011;9503;53.560;10.246;2023-07-20T06:35:52;2.22;;;2.00;;
18748;SDS011;9503;53.560;10.246;2023-07-20T06:38:19;2.03;;;1.92;;
18748;SDS011;9503;53.560;10.246;2023-07-20T06:40:47;2.38;;;2.00;;
18748;SDS011;9503;53.560;10.246;2023-07-20T06:43:13;5.03;;;2.85;;
18748;SDS011;9503;53.560;10.246;2023-07-20T06:45:40;3.70;;;2.10;;
18748;SDS011;9503;53.560;10.246;2023-07-20T06:48:07;2.00;;;1.55;;
18748;SDS011;9503;53.560;10.246;2023-07-20T06:50:33;2.13;;;1.75;;
18748;SDS011;9503;53.560;10.246;2023-07-20T06:53:00;2.28;;;1.90;;
18748;SDS011;9503;53.560;10.246;2023-07-20T06:55:29;2.83;;;1.50;;
18748;SDS011;9503;53.560;10.246;2023-07-20T06:57:57;4.25;;;1.70;;
18748;SDS011;9503;53.560;10.246;2023-07-20T07:00:24;2.05;;;1.45;;
18748;SDS011;9503;53.560;10.246;2023-07-20T07:02:50;2.92;;;1.63;;
18748;SDS011;9503;53.560;10.246;2023-07-20T07:05:17;2.40;;;1.23;;
18748;SDS011;9503;53.560;10.246;2023-07-20T07:07:44;3.80;;;2.00;;
18748;SDS011;9503;53.560;10.246;2023-07-20T07:10:10;4.50;;;1.98;;
18748;SDS011;9503;53.560;10.246;2023-07-20T07:12:37;1.77;;;1.67;;
18748;SDS011;9503;53.560;10.246;2023-07-20T07:15:05;2.40;;;1.70;;
18748;SDS011;9503;53.560;10.246;2023-07-20T07:17:32;3.25;;;1.90;;
18748;SDS011;9503;53.560;10.246;2023-07-20T07:20:00;4.80;;;1.48;;
18748;SDS011;9503;53.560;10.246;2023-07-20T07:22:26;2.83;;;1.60;;
18748;SDS011;9503;53.560;10.246;2023-07-20T07:24:54;2.88;;;1.52;;
18748;SDS011;9503;53.560;10.246;2023-07-20T07:27:21;3.53;;;1.30;;
18748;SDS011;9503;53.560;10.246;2023-07-20T07:29:47;3.38;;;1.92;;
18748;SDS011;9503;53.560;10.246;2023-07-20T07:32:16;2.25;;;1.40;;
18748;SDS011;9503;53.560;10.246;2023-07-20T07:34:43;6.88;;;1.40;;
18748;SDS011;9503;53.560;10.246;2023-07-20T07:37:11;2.70;;;1.20;;
18748;SDS011;9503;53.560;10.246;2023-07-20T07:39:38;3.13;;;1.48;;
18748;SDS011;9503;53.560;10.246;2023-07-20T07:42:05;3.47;;;1.27;;
18748;SDS011;9503;53.560;10.246;2023-07-20T07:44:32;2.60;;;1.60;;
18748;SDS011;9503;53.560;10.246;2023-07-20T07:46:58;2.90;;;1.30;;
18748;SDS011;9503;53.560;10.246;2023-07-20T07:49:26;2.85;;;1.40;;
18748;SDS011;9503;53.560;10.246;2023-07-20T07:51:54;2.97;;;1.40;;
18748;SDS011;9503;53.560;10.246;2023-07-20T07:54:20;2.17;;;1.55;;
18748;SDS011;9503;53.560;10.246;2023-07-20T07:56:47;3.85;;;1.30;;
18748;SDS011;9503;53.560;10.246;2023-07-20T07:59:14;3.08;;;1.50;;
18748;SDS011;9503;53.560;10.246;2023-07-20T08:01:40;2.63;;;1.40;;
18748;SDS011;9503;53.560;10.246;2023-07-20T08:04:07;5.25;;;1.67;;
18748;SDS011;9503;53.560;10.246;2023-07-20T08:06:35;4.00;;;1.67;;
18748;SDS011;9503;53.560;10.246;2023-07-20T08:09:01;5.65;;;1.98;;
18748;SDS011;9503;53.560;10.246;2023-07-20T08:11:28;6.28;;;1.65;;
18748;SDS011;9503;53.560;10.246;2023-07-20T08:13:55;3.13;;;1.77;;
18748;SDS011;9503;53.560;10.246;2023-07-20T08:16:22;3.22;;;1.65;;
18748;SDS011;9503;53.560;10.246;2023-07-20T08:18:48;2.47;;;1.48;;
18748;SDS011;9503;53.560;10.246;2023-07-20T08:21:15;2.65;;;2.03;;
18748;SDS011;9503;53.560;10.246;2023-07-20T08:23:43;3.15;;;1.75;;
18748;SDS011;9503;53.560;10.246;2023-07-20T08:26:10;4.40;;;2.00;;
18748;SDS011;9503;53.560;10.246;2023-07-20T08:28:37;3.22;;;1.85;;
18748;SDS011;9503;53.560;10.246;2023-07-20T08:31:05;5.47;;;2.13;;
18748;SDS011;9503;53.560;10.246;2023-07-20T08:33:32;7.97;;;2.67;;
18748;SDS011;9503;53.560;10.246;2023-07-20T08:35:59;5.65;;;2.83;;
18748;SDS011;9503;53.560;10.246;2023-07-20T08:38:26;3.97;;;2.38;;
18748;SDS011;9503;53.560;10.246;2023-07-20T08:40:54;10.88;;;2.53;;
18748;SDS011;9503;53.560;10.246;2023-07-20T08:43:22;6.82;;;2.63;;
18748;SDS011;9503;53.560;10.246;2023-07-20T08:45:50;5.80;;;2.38;;
18748;SDS011;9503;53.560;10.246;2023-07-20T08:48:18;5.13;;;2.10;;
18748;SDS011;9503;53.560;10.246;2023-07-20T08:50:47;3.53;;;2.17;;
18748;SDS011;9503;53.560;10.246;2023-07-20T08:53:15;7.47;;;2.53;;
18748;SDS011;9503;53.560;10.246;2023-07-20T08:55:42;5.35;;;2.17;;
18748;SDS011;9503;53.560;10.246;2023-07-20T08:58:12;6.88;;;2.40;;
18748;SDS011;9503;53.560;10.246;2023-07-20T09:00:40;3.97;;;2.25;;
18748;SDS011;9503;53.560;10.246;2023-07-20T09:03:07;3.70;;;1.98;;
18748;SDS011;9503;53.560;10.246;2023-07-20T09:05:34;4.45;;;1.95;;
18748;SDS011;9503;53.560;10.246;2023-07-20T09:08:01;5.07;;;2.05;;
18748;SDS011;9503;53.560;10.246;2023-07-20T09:10:29;3.50;;;1.80;;
18748;SDS011;9503;53.560;10.246;2023-07-20T09:12:56;7.90;;;2.17;;
18748;SDS011;9503;53.560;10.246;2023-07-20T09:15:24;4.97;;;2.40;;
18748;SDS011;9503;53.560;10.246;2023-07-20T09:17:51;3.55;;;2.00;;
18748;SDS011;9503;53.560;10.246;2023-07-20T09:20:18;3.88;;;1.92;;
18748;SDS011;9503;53.560;10.246;2023-07-20T09:22:45;4.43;;;2.25;;
18748;SDS011;9503;53.560;10.246;2023-07-20T09:25:13;6.50;;;2.03;;
18748;SDS011;9503;53.560;10.246;2023-07-20T09:27:41;5.20;;;2.13;;
18748;SDS011;9503;53.560;10.246;2023-07-20T09:30:08;5.05;;;2.70;;
18748;SDS011;9503;53.560;10.246;2023-07-20T09:32:39;7.13;;;2.50;;
18748;SDS011;9503;53.560;10.246;2023-07-20T09:35:12;7.35;;;2.30;;
18748;SDS011;9503;53.560;10.246;2023-07-20T09:37:39;8.98;;;2.40;;
18748;SDS011;9503;53.560;10.246;2023-07-20T09:40:07;5.50;;;2.20;;
18748;SDS011;9503;53.560;10.246;2023-07-20T09:42:34;6.68;;;1.88;;
18748;SDS011;9503;53.560;10.246;2023-07-20T09:45:02;8.38;;;2.60;;
18748;SDS011;9503;53.560;10.246;2023-07-20T09:47:33;6.00;;;2.33;;
18748;SDS011;9503;53.560;10.246;2023-07-20T09:50:04;6.22;;;2.10;;
18748;SDS011;9503;53.560;10.246;2023-07-20T09:52:35;5.32;;;2.20;;
18748;SDS011;9503;53.560;10.246;2023-07-20T09:55:06;4.43;;;2.03;;
18748;SDS011;9503;53.560;10.246;2023-07-20T09:57:34;4.75;;;1.67;;
18748;SDS011;9503;53.560;10.246;2023-07-20T10:00:02;5.95;;;1.50;;
18748;SDS011;9503;53.560;10.246;2023-07-20T10:02:33;7.60;;;2.00;;
18748;SDS011;9503;53.560;10.246;2023-07-20T10:05:04;4.63;;;2.50;;
18748;SDS011;9503;53.560;10.246;2023-07-20T10:07:33;5.65;;;1.85;;
18748;SDS011;9503;53.560;10.246;2023-07-20T10:10:02;2.88;;;1.45;;
18748;SDS011;9503;53.560;10.246;2023-07-20T10:12:30;2.65;;;1.30;;
18748;SDS011;9503;53.560;10.246;2023-07-20T10:14:59;2.63;;;1.40;;
18748;SDS011;9503;53.560;10.246;2023-07-20T10:17:35;3.40;;;1.33;;
18748;SDS011;9503;53.560;10.246;2023-07-20T10:20:06;2.67;;;1.00;;
18748;SDS011;9503;53.560;10.246;2023-07-20T10:22:35;2.28;;;1.23;;
18748;SDS011;9503;53.560;10.246;2023-07-20T10:25:03;4.57;;;1.17;;
18748;SDS011;9503;53.560;10.246;2023-07-20T10:27:31;1.67;;;1.08;;
18748;SDS011;9503;53.560;10.246;2023-07-20T10:29:58;1.85;;;0.90;;
18748;SDS011;9503;53.560;10.246;2023-07-20T10:32:26;2.92;;;1.00;;
18748;SDS011;9503;53.560;10.246;2023-07-20T10:34:55;1.08;;;0.93;;
18748;SDS011;9503;53.560;10.246;2023-07-20T10:40:29;3.78;;;1.27;;
18748;SDS011;9503;53.560;10.246;2023-07-20T10:43:01;3.33;;;1.10;;
18748;SDS011;9503;53.560;10.246;2023-07-20T10:45:42;5.63;;;1.10;;
18748;SDS011;9503;53.560;10.246;2023-07-20T10:48:15;1.52;;;1.02;;
18748;SDS011;9503;53.560;10.246;2023-07-20T10:50:43;4.82;;;1.52;;
18748;SDS011;9503;53.560;10.246;2023-07-20T10:53:12;6.85;;;1.20;;
18748;SDS011;9503;53.560;10.246;2023-07-20T10:55:40;4.38;;;1.10;;
18748;SDS011;9503;53.560;10.246;2023-07-20T10:58:09;2.03;;;1.10;;
18748;SDS011;9503;53.560;10.246;2023-07-20T11:00:37;3.75;;;1.20;;
18748;SDS011;9503;53.560;10.246;2023-07-20T11:03:04;1.77;;;1.30;;
18748;SDS011;9503;53.560;10.246;2023-07-20T11:05:34;2.22;;;1.20;;
18748;SDS011;9503;53.560;10.246;2023-07-20T11:08:05;3.35;;;0.80;;
18748;SDS011;9503;53.560;10.246;2023-07-20T11:10:36;4.28;;;1.63;;
18748;SDS011;9503;53.560;10.246;2023-07-20T11:13:16;2.00;;;0.88;;
18748;SDS011;9503;53.560;10.246;2023-07-20T11:15:44;4.95;;;1.30;;
18748;SDS011;9503;53.560;10.246;2023-07-20T11:18:12;3.58;;;1.20;;
18748;SDS011;9503;53.560;10.246;2023-07-20T11:20:39;3.70;;;1.33;;
18748;SDS011;9503;53.560;10.246;2023-07-20T11:23:06;2.30;;;1.30;;
18748;SDS011;9503;53.560;10.246;2023-07-20T11:25:39;2.63;;;1.05;;
18748;SDS011;9503;53.560;10.246;2023-07-20T11:28:06;4.05;;;1.20;;
18748;SDS011;9503;53.560;10.246;2023-07-20T11:30:34;3.13;;;1.20;;
18748;SDS011;9503;53.560;10.246;2023-07-20T11:33:00;2.20;;;1.27;;
18748;SDS011;9503;53.560;10.246;2023-07-20T11:35:27;4.07;;;1.60;;
18748;SDS011;9503;53.560;10.246;2023-07-20T11:37:54;4.97;;;1.73;;
18748;SDS011;9503;53.560;10.246;2023-07-20T11:40:21;9.10;;;2.03;;
18748;SDS011;9503;53.560;10.246;2023-07-20T11:42:50;5.13;;;1.77;;
18748;SDS011;9503;53.560;10.246;2023-07-20T11:45:17;3.90;;;1.52;;
18748;SDS011;9503;53.560;10.246;2023-07-20T11:47:45;4.15;;;1.45;;
18748;SDS011;9503;53.560;10.246;2023-07-20T11:50:11;2.72;;;1.60;;
18748;SDS011;9503;53.560;10.246;2023-07-20T11:52:39;1.80;;;1.10;;
18748;SDS011;9503;53.560;10.246;2023-07-20T11:55:07;3.70;;;1.58;;
18748;SDS011;9503;53.560;10.246;2023-07-20T11:57:34;5.50;;;1.55;;
18748;SDS011;9503;53.560;10.246;2023-07-20T12:00:02;4.68;;;1.25;;
18748;SDS011;9503;53.560;10.246;2023-07-20T12:02:34;3.45;;;1.20;;
18748;SDS011;9503;53.560;10.246;2023-07-20T12:05:01;1.98;;;1.00;;
18748;SDS011;9503;53.560;10.246;2023-07-20T12:07:28;1.35;;;0.73;;
18748;SDS011;9503;53.560;10.246;2023-07-20T12:10:05;1.23;;;0.90;;
18748;SDS011;9503;53.560;10.246;2023-07-20T12:12:33;2.45;;;1.10;;
18748;SDS011;9503;53.560;10.246;2023-07-20T12:15:14;2.17;;;1.10;;
18748;SDS011;9503;53.560;10.246;2023-07-20T12:17:42;2.17;;;1.00;;
18748;SDS011;9503;53.560;10.246;2023-07-20T12:20:09;1.70;;;0.85;;
18748;SDS011;9503;53.560;10.246;2023-07-20T12:22:39;3.08;;;1.00;;
18748;SDS011;9503;53.560;10.246;2023-07-20T12:25:07;2.05;;;1.08;;
18748;SDS011;9503;53.560;10.246;2023-07-20T12:27:35;1.65;;;1.10;;
18748;SDS011;9503;53.560;10.246;2023-07-20T12:30:03;1.75;;;1.00;;
18748;SDS011;9503;53.560;10.246;2023-07-20T12:32:32;2.78;;;0.88;;
18748;SDS011;9503;53.560;10.246;2023-07-20T12:34:59;2.03;;;0.95;;
18748;SDS011;9503;53.560;10.246;2023-07-20T12:37:26;1.30;;;0.82;;
18748;SDS011;9503;53.560;10.246;2023-07-20T12:39:52;3.67;;;1.20;;
18748;SDS011;9503;53.560;10.246;2023-07-20T12:42:19;3.85;;;1.30;;
18748;SDS011;9503;53.560;10.246;2023-07-20T12:44:48;3.47;;;1.30;;
18748;SDS011;9503;53.560;10.246;2023-07-20T12:47:15;3.40;;;1.20;;
18748;SDS011;9503;53.560;10.246;2023-07-20T12:49:43;5.45;;;1.70;;
18748;SDS011;9503;53.560;10.246;2023-07-20T12:52:11;6.05;;;1.10;;
18748;SDS011;9503;53.560;10.246;2023-07-20T12:54:38;2.90;;;1.25;;
18748;SDS011;9503;53.560;10.246;2023-07-20T12:57:05;4.00;;;1.00;;
18748;SDS011;9503;53.560;10.246;2023-07-20T12:59:32;1.27;;;0.90;;
18748;SDS011;9503;53.560;10.246;2023-07-20T13:01:59;3.72;;;1.40;;
18748;SDS011;9503;53.560;10.246;2023-07-20T13:04:26;5.03;;;1.08;;
18748;SDS011;9503;53.560;10.246;2023-07-20T13:06:54;3.90;;;1.60;;
18748;SDS011;9503;53.560;10.246;2023-07-20T13:09:20;2.88;;;1.38;;
18748;SDS011;9503;53.560;10.246;2023-07-20T13:11:47;3.22;;;1.65;;
18748;SDS011;9503;53.560;10.246;2023-07-20T13:14:14;2.53;;;1.27;;
18748;SDS011;9503;53.560;10.246;2023-07-20T13:16:40;7.78;;;1.50;;
18748;SDS011;9503;53.560;10.246;2023-07-20T13:19:07;6.13;;;1.52;;
18748;SDS011;9503;53.560;10.246;2023-07-20T13:21:34;1.52;;;1.00;;
18748;SDS011;9503;53.560;10.246;2023-07-20T13:24:02;3.72;;;1.48;;
18748;SDS011;9503;53.560;10.246;2023-07-20T13:26:29;1.55;;;1.20;;
18748;SDS011;9503;53.560;10.246;2023-07-20T13:28:56;5.57;;;1.63;;
18748;SDS011;9503;53.560;10.246;2023-07-20T13:31:23;1.90;;;1.30;;
18748;SDS011;9503;53.560;10.246;2023-07-20T13:33:49;6.35;;;1.50;;
18748;SDS011;9503;53.560;10.246;2023-07-20T13:36:16;5.38;;;1.65;;
18748;SDS011;9503;53.560;10.246;2023-07-20T13:38:42;3.65;;;1.10;;
18748;SDS011;9503;53.560;10.246;2023-07-20T13:41:10;4.93;;;1.10;;
18748;SDS011;9503;53.560;10.246;2023-07-20T13:43:37;4.70;;;1.15;;
18748;SDS011;9503;53.560;10.246;2023-07-20T13:46:03;5.00;;;1.50;;
18748;SDS011;9503;53.560;10.246;2023-07-20T13:48:30;3.22;;;1.40;;
18748;SDS011;9503;53.560;10.246;2023-07-20T13:50:57;2.88;;;1.27;;
18748;SDS011;9503;53.560;10.246;2023-07-20T13:53:23;5.38;;;1.40;;
18748;SDS011;9503;53.560;10.246;2023-07-20T13:55:50;2.05;;;0.85;;
18748;SDS011;9503;53.560;10.246;2023-07-20T13:58:19;4.40;;;1.45;;
18748;SDS011;9503;53.560;10.246;2023-07-20T14:00:45;2.88;;;1.00;;
18748;SDS011;9503;53.560;10.246;2023-07-20T14:03:12;5.30;;;1.25;;
18748;SDS011;9503;53.560;10.246;2023-07-20T14:05:38;3.45;;;1.30;;
18748;SDS011;9503;53.560;10.246;2023-07-20T14:08:05;5.18;;;1.38;;
18748;SDS011;9503;53.560;10.246;2023-07-20T14:10:32;6.93;;;1.70;;
18748;SDS011;9503;53.560;10.246;2023-07-20T14:12:58;3.53;;;1.40;;
18748;SDS011;9503;53.560;10.246;2023-07-20T14:15:27;2.75;;;1.27;;
18748;SDS011;9503;53.560;10.246;2023-07-20T14:17:53;5.53;;;1.60;;
18748;SDS011;9503;53.560;10.246;2023-07-20T14:20:20;4.20;;;1.52;;
18748;SDS011;9503;53.560;10.246;2023-07-20T14:22:46;3.47;;;1.30;;
18748;SDS011;9503;53.560;10.246;2023-07-20T14:25:13;2.88;;;1.30;;
18748;SDS011;9503;53.560;10.246;2023-07-20T14:27:40;4.25;;;1.15;;
18748;SDS011;9503;53.560;10.246;2023-07-20T14:30:07;2.95;;;1.10;;
18748;SDS011;9503;53.560;10.246;2023-07-20T14:32:36;2.20;;;0.85;;
18748;SDS011;9503;53.560;10.246;2023-07-20T14:35:03;0.85;;;0.80;;
18748;SDS011;9503;53.560;10.246;2023-07-20T14:37:30;1.92;;;1.20;;
18748;SDS011;9503;53.560;10.246;2023-07-20T14:39:56;3.45;;;1.25;;
18748;SDS011;9503;53.560;10.246;2023-07-20T14:42:23;2.35;;;0.80;;
18748;SDS011;9503;53.560;10.246;2023-07-20T14:44:50;2.50;;;1.00;;
18748;SDS011;9503;53.560;10.246;2023-07-20T14:47:16;1.55;;;0.90;;
18748;SDS011;9503;53.560;10.246;2023-07-20T14:49:44;0.77;;;0.77;;
18748;SDS011;9503;53.560;10.246;2023-07-20T14:52:11;1.38;;;0.75;;
18748;SDS011;9503;53.560;10.246;2023-07-20T14:54:38;1.45;;;0.95;;
18748;SDS011;9503;53.560;10.246;2023-07-20T14:57:05;2.67;;;0.90;;
18748;SDS011;9503;53.560;10.246;2023-07-20T14:59:39;1.65;;;1.10;;